Time;durP1;ratioP1;P1;durP2;ratioP2;P2;SDS_P1;SDS_P2;PMS_P1;PMS_P2;Temp;Humidity;BMP_temperature;BMP_pressure;BME280_temperature;BME280_humidity;BME280_pressure;Samples;Min_cycle;Max_cycle;Signal;HPM_P1;HPM_P2
2023/07/25 00:00:30;;;;;;;14.63;13.50;;;17.80;99.90;;;;;;5067193;28;20215;-44
2023/07/25 00:02:56;;;;;;;13.70;12.90;;;17.90;99.90;;;;;;5069197;28;20193;-43
2023/07/25 00:05:21;;;;;;;13.90;13.03;;;17.90;99.90;;;;;;5072141;28;20200;-42
2023/07/25 00:07:47;;;;;;;13.70;12.90;;;18.00;99.90;;;;;;5070436;28;20686;-43
2023/07/25 00:10:13;;;;;;;13.93;13.10;;;18.10;99.90;;;;;;5076138;28;20532;-42
2023/07/25 00:12:38;;;;;;;14.27;13.47;;;18.10;94.40;;;;;;5075272;28;20520;-42
2023/07/25 00:15:05;;;;;;;14.00;13.20;;;18.20;97.00;;;;;;5076356;28;20249;-42
2023/07/25 00:17:30;;;;;;;13.43;12.73;;;18.30;82.20;;;;;;5075144;28;20237;-45
2023/07/25 00:19:56;;;;;;;13.90;13.20;;;18.30;72.40;;;;;;5067688;28;20466;-42
2023/07/25 00:22:22;;;;;;;13.97;13.20;;;18.30;55.80;;;;;;5068287;28;20207;-51
2023/07/25 00:24:47;;;;;;;13.90;13.10;;;18.40;51.10;;;;;;5076069;28;20224;-54
2023/07/25 00:27:13;;;;;;;13.70;13.00;;;18.50;46.00;;;;;;5076581;28;20635;-48
2023/07/25 00:29:39;;;;;;;13.27;12.57;;;18.50;40.90;;;;;;5065717;28;20500;-50
2023/07/25 00:32:05;;;;;;;13.53;12.77;;;18.50;44.20;;;;;;5068857;28;20193;-49
2023/07/25 00:34:30;;;;;;;14.33;13.23;;;18.50;33.70;;;;;;5069530;28;20752;-50
2023/07/25 00:36:56;;;;;;;13.40;12.70;;;18.50;34.10;;;;;;5064097;28;20610;-47
2023/07/25 00:39:22;;;;;;;13.17;12.47;;;18.50;29.00;;;;;;5077535;28;20659;-52
2023/07/25 00:41:48;;;;;;;13.13;12.43;;;18.50;30.30;;;;;;5072025;28;20189;-49
2023/07/25 00:44:13;;;;;;;13.20;12.50;;;18.50;26.00;;;;;;5068956;28;20512;-53
2023/07/25 00:46:41;;;;;;;13.83;13.03;;;18.50;30.60;;;;;;5069423;28;20216;-49
2023/07/25 00:49:07;;;;;;;13.50;12.80;;;18.50;28.00;;;;;;5064450;28;20196;-47
2023/07/25 00:51:33;;;;;;;13.70;12.90;;;18.40;32.80;;;;;;5075814;28;21039;-43
2023/07/25 00:53:59;;;;;;;13.83;13.03;;;18.30;39.40;;;;;;5064622;28;20787;-43
2023/07/25 00:56:26;;;;;;;13.83;13.13;;;18.30;40.90;;;;;;5069788;28;20475;-44
2023/07/25 00:58:52;;;;;;;13.90;12.90;;;18.30;45.40;;;;;;5068013;28;20434;-45
2023/07/25 01:01:18;;;;;;;13.23;12.53;;;18.20;46.50;;;;;;5068941;28;20426;-42
2023/07/25 01:03:44;;;;;;;13.80;13.00;;;18.10;54.60;;;;;;5062968;28;20181;-42
2023/07/25 01:06:12;;;;;;;13.67;12.87;;;18.10;58.20;;;;;;5070906;28;20457;-41
2023/07/25 01:08:48;;;;;;;14.07;13.17;;;18.00;59.00;;;;;;5068121;28;20430;-43
2023/07/25 01:11:14;;;;;;;14.00;13.20;;;18.00;55.10;;;;;;5076406;28;20781;-42
2023/07/25 01:13:39;;;;;;;13.47;12.77;;;18.00;60.00;;;;;;5070702;28;20442;-43
2023/07/25 01:16:06;;;;;;;13.77;13.07;;;18.10;53.10;;;;;;5079152;28;20227;-41
2023/07/25 01:18:31;;;;;;;13.50;12.70;;;18.00;53.60;;;;;;5064037;28;20878;-49
2023/07/25 01:20:58;;;;;;;13.70;13.00;;;18.00;57.50;;;;;;5067561;28;20489;-42
2023/07/25 01:23:24;;;;;;;13.87;13.10;;;18.10;46.10;;;;;;5063692;28;20192;-42
2023/07/25 01:25:50;;;;;;;14.07;13.17;;;18.00;57.60;;;;;;5076970;28;20890;-45
2023/07/25 01:28:15;;;;;;;13.60;12.90;;;18.00;61.50;;;;;;5069039;28;20438;-42
2023/07/25 01:30:41;;;;;;;13.97;13.20;;;18.00;54.30;;;;;;5064808;28;20185;-41
2023/07/25 01:33:07;;;;;;;14.23;13.43;;;18.00;56.60;;;;;;5073310;28;20223;-43
2023/07/25 01:35:32;;;;;;;13.67;12.97;;;18.00;52.30;;;;;;5060988;28;20181;-42
2023/07/25 01:37:58;;;;;;;13.83;13.00;;;18.00;51.90;;;;;;5063459;28;20663;-43
2023/07/25 01:40:23;;;;;;;13.47;12.77;;;18.00;46.20;;;;;;5071498;28;20788;-42
2023/07/25 01:42:49;;;;;;;12.97;12.33;;;18.00;47.60;;;;;;5062226;28;20189;-43
2023/07/25 01:45:14;;;;;;;13.70;13.00;;;17.90;47.30;;;;;;5070942;28;20186;-42
2023/07/25 01:47:40;;;;;;;13.70;13.00;;;17.90;39.40;;;;;;5068609;28;20185;-42
2023/07/25 01:50:06;;;;;;;13.83;13.13;;;17.90;40.40;;;;;;5069655;28;20188;-44
2023/07/25 01:52:32;;;;;;;14.40;13.53;;;17.90;42.70;;;;;;5070586;28;20200;-42
2023/07/25 01:54:57;;;;;;;13.70;12.90;;;17.90;44.00;;;;;;5064424;28;20190;-42
2023/07/25 01:57:23;;;;;;;14.23;13.40;;;17.80;39.90;;;;;;5056649;28;20788;-42
2023/07/25 01:59:49;;;;;;;13.17;12.47;;;17.80;43.10;;;;;;5060306;28;20215;-45
2023/07/25 02:02:15;;;;;;;13.90;13.10;;;17.80;46.50;;;;;;5065034;28;20177;-45
2023/07/25 02:04:40;;;;;;;14.50;13.60;;;17.70;53.90;;;;;;5069511;28;20445;-43
2023/07/25 02:07:06;;;;;;;14.07;13.00;;;17.70;58.80;;;;;;5058090;28;20239;-43
2023/07/25 02:09:31;;;;;;;13.87;13.07;;;17.70;53.60;;;;;;5060999;28;20187;-44
2023/07/25 02:11:58;;;;;;;14.00;13.20;;;17.70;51.90;;;;;;5071256;28;20189;-42
2023/07/25 02:14:24;;;;;;;13.87;13.07;;;17.60;53.00;;;;;;5070824;28;20204;-43
2023/07/25 02:16:49;;;;;;;13.73;12.93;;;17.60;52.80;;;;;;5072543;28;20899;-47
2023/07/25 02:19:15;;;;;;;13.90;13.10;;;17.60;59.50;;;;;;5063523;28;20682;-42
2023/07/25 02:21:40;;;;;;;14.50;13.60;;;17.50;55.30;;;;;;5077021;28;20178;-47
2023/07/25 02:24:06;;;;;;;14.70;13.80;;;17.60;52.50;;;;;;5074762;28;20228;-42
2023/07/25 02:26:32;;;;;;;13.37;12.67;;;17.60;51.90;;;;;;5062698;28;20189;-43
2023/07/25 02:28:57;;;;;;;13.60;12.90;;;17.60;52.80;;;;;;5068417;28;20188;-41
2023/07/25 02:31:23;;;;;;;14.43;13.53;;;17.50;58.10;;;;;;5062395;28;20245;-45
2023/07/25 02:33:48;;;;;;;13.87;13.07;;;17.50;60.50;;;;;;5064458;28;20188;-47
2023/07/25 02:36:14;;;;;;;14.60;13.50;;;17.50;55.50;;;;;;5070241;28;20181;-45
2023/07/25 02:38:40;;;;;;;13.83;13.13;;;17.50;52.90;;;;;;5071844;28;20283;-45
2023/07/25 02:41:05;;;;;;;14.90;14.10;;;17.40;55.90;;;;;;5079235;28;21160;-42
2023/07/25 02:43:31;;;;;;;13.90;13.20;;;17.40;58.30;;;;;;5077367;28;20195;-40
2023/07/25 02:45:56;;;;;;;14.37;13.50;;;17.40;55.40;;;;;;5075215;28;20185;-43
2023/07/25 02:48:22;;;;;;;13.60;12.90;;;17.40;58.20;;;;;;5065453;28;20234;-43
2023/07/25 02:50:48;;;;;;;13.80;13.03;;;17.40;56.20;;;;;;5070454;28;20194;-42
2023/07/25 02:53:13;;;;;;;13.97;13.20;;;17.40;62.30;;;;;;5066602;28;20744;-43
2023/07/25 02:55:39;;;;;;;14.20;13.30;;;17.40;58.00;;;;;;5063689;28;20602;-41
2023/07/25 02:58:04;;;;;;;14.17;13.27;;;17.40;59.20;;;;;;5062218;28;20185;-40
2023/07/25 03:00:30;;;;;;;14.50;13.67;;;17.40;59.80;;;;;;5063863;28;20197;-45
2023/07/25 03:02:56;;;;;;;14.17;13.37;;;17.40;61.20;;;;;;5078993;28;20730;-42
2023/07/25 03:05:21;;;;;;;14.23;13.33;;;17.30;68.10;;;;;;5081242;28;20176;-48
2023/07/25 03:07:47;;;;;;;14.17;13.37;;;17.20;70.60;;;;;;5064457;28;20211;-43
2023/07/25 03:10:13;;;;;;;13.97;13.17;;;17.20;77.50;;;;;;5078822;28;20706;-41
2023/07/25 03:12:39;;;;;;;14.93;13.87;;;17.20;79.00;;;;;;5066167;28;20439;-43
2023/07/25 03:15:05;;;;;;;14.40;13.60;;;17.20;79.40;;;;;;5079343;28;20188;-41
2023/07/25 03:17:31;;;;;;;14.87;14.07;;;17.20;85.90;;;;;;5070271;28;20193;-41
2023/07/25 03:19:57;;;;;;;13.63;12.80;;;17.20;87.60;;;;;;5075901;28;20993;-44
2023/07/25 03:22:22;;;;;;;14.33;13.40;;;17.30;81.90;;;;;;5071081;28;21390;-43
2023/07/25 03:24:49;;;;;;;14.33;13.57;;;17.20;82.80;;;;;;5074752;28;20522;-44
2023/07/25 03:27:16;;;;;;;14.37;13.57;;;17.30;72.50;;;;;;5070675;28;20846;-47
2023/07/25 03:29:42;;;;;;;14.40;13.50;;;17.30;70.40;;;;;;5070919;28;20419;-46
2023/07/25 03:32:08;;;;;;;14.33;13.53;;;17.30;71.40;;;;;;5069542;28;20453;-43
2023/07/25 03:34:33;;;;;;;14.97;14.00;;;17.30;73.50;;;;;;5068824;28;20219;-43
2023/07/25 03:36:59;;;;;;;14.70;13.90;;;17.30;73.40;;;;;;5069571;28;20610;-44
2023/07/25 03:39:24;;;;;;;14.20;13.40;;;17.40;62.00;;;;;;5080217;28;20204;-41
2023/07/25 03:41:50;;;;;;;13.97;12.97;;;17.40;50.70;;;;;;5073318;28;20185;-41
2023/07/25 03:44:19;;;;;;;12.50;11.90;;;17.40;56.30;;;;;;5068043;28;20558;-43
2023/07/25 03:46:45;;;;;;;13.80;13.00;;;17.40;60.20;;;;;;5060398;28;20189;-44
2023/07/25 03:49:12;;;;;;;14.07;13.17;;;17.50;53.80;;;;;;5077931;28;20418;-45
2023/07/25 03:51:38;;;;;;;14.10;13.30;;;17.50;45.50;;;;;;5072213;28;20431;-42
2023/07/25 03:54:07;;;;;;;14.50;13.60;;;17.50;49.80;;;;;;5070180;28;20989;-43
2023/07/25 03:56:33;;;;;;;15.13;14.23;;;17.50;45.80;;;;;;5062401;28;20555;-41
2023/07/25 03:58:59;;;;;;;14.53;13.60;;;17.60;48.20;;;;;;5079136;28;20437;-44
2023/07/25 04:01:25;;;;;;;13.40;12.70;;;17.60;47.40;;;;;;5068133;28;20466;-45
2023/07/25 04:03:51;;;;;;;14.70;13.90;;;17.60;44.20;;;;;;5066269;28;20562;-43
2023/07/25 04:06:18;;;;;;;14.13;13.33;;;17.60;40.30;;;;;;5062106;28;20185;-43
2023/07/25 04:08:44;;;;;;;14.13;13.10;;;17.70;30.90;;;;;;5072142;28;20242;-42
2023/07/25 04:11:09;;;;;;;14.60;13.60;;;17.70;29.90;;;;;;5067335;28;20454;-46
2023/07/25 04:13:35;;;;;;;14.60;13.70;;;17.70;30.30;;;;;;5072995;28;20193;-42
2023/07/25 04:16:00;;;;;;;14.70;13.70;;;17.80;27.60;;;;;;5074863;28;20210;-42
2023/07/25 04:18:26;;;;;;;14.97;14.07;;;17.90;16.70;;;;;;5070152;28;20185;-42
2023/07/25 04:20:52;;;;;;;14.27;13.40;;;17.80;17.70;;;;;;5057492;28;20212;-44
2023/07/25 04:23:17;;;;;;;14.50;13.70;;;17.90;22.80;;;;;;5061186;28;20191;-42
2023/07/25 04:25:43;;;;;;;14.60;13.60;;;17.90;22.80;;;;;;5066955;28;20262;-47
2023/07/25 04:28:09;;;;;;;15.53;14.53;;;17.90;21.50;;;;;;5076477;28;20348;-45
2023/07/25 04:30:34;;;;;;;14.20;13.13;;;18.00;20.00;;;;;;5065167;28;20188;-42
2023/07/25 04:33:01;;;;;;;14.50;13.40;;;18.00;9.90;;;;;;5079253;28;20857;-46
2023/07/25 04:35:27;;;;;;;14.70;13.90;;;18.10;6.60;;;;;;5073958;28;20565;-46
2023/07/25 04:37:52;;;;;;;13.83;13.00;;;18.10;4.00;;;;;;5060066;28;20192;-43
2023/07/25 04:40:18;;;;;;;14.53;13.53;;;18.10;1.00;;;;;;5075338;28;20208;-41
2023/07/25 04:42:44;;;;;;;14.40;13.47;;;18.10;1.00;;;;;;5060051;28;20238;-44
2023/07/25 04:45:10;;;;;;;14.57;13.57;;;18.20;1.00;;;;;;5060586;28;20185;-42
2023/07/25 04:47:35;;;;;;;14.57;13.67;;;18.10;2.80;;;;;;5075179;28;20277;-42
2023/07/25 04:50:01;;;;;;;14.90;13.93;;;18.10;1.00;;;;;;5067145;28;20437;-44
2023/07/25 04:52:27;;;;;;;13.70;12.90;;;18.30;1.00;;;;;;5078020;28;20221;-40
2023/07/25 04:54:57;;;;;;;15.17;14.17;;;18.30;1.00;;;;;;5070292;28;20446;-42
2023/07/25 04:57:23;;;;;;;14.77;13.87;;;18.40;1.00;;;;;;5079320;28;20185;-47
2023/07/25 04:59:49;;;;;;;14.30;13.40;;;18.40;1.00;;;;;;5068267;28;20474;-43
2023/07/25 05:02:15;;;;;;;13.50;12.60;;;18.40;1.00;;;;;;5075796;28;20984;-42
2023/07/25 05:04:40;;;;;;;14.27;13.37;;;18.40;1.00;;;;;;5079181;28;20195;-42
2023/07/25 05:07:06;;;;;;;14.43;13.40;;;18.40;1.00;;;;;;5079175;28;20452;-42
2023/07/25 05:09:32;;;;;;;14.73;13.63;;;18.40;1.00;;;;;;5078269;28;20294;-42
2023/07/25 05:11:57;;;;;;;13.00;12.20;;;18.40;1.00;;;;;;5077741;28;20253;-42
2023/07/25 05:14:23;;;;;;;13.50;12.67;;;18.40;1.00;;;;;;5074595;28;20332;-43
2023/07/25 05:16:49;;;;;;;14.07;13.07;;;18.40;1.00;;;;;;5056373;28;20552;-44
2023/07/25 05:19:14;;;;;;;14.30;13.50;;;18.40;1.00;;;;;;5078347;28;20398;-43
2023/07/25 05:21:40;;;;;;;13.80;13.00;;;18.40;1.00;;;;;;5078811;28;20176;-44
2023/07/25 05:24:05;;;;;;;14.03;13.13;;;18.40;1.00;;;;;;5076590;28;20308;-49
2023/07/25 05:26:31;;;;;;;13.73;12.83;;;18.40;1.00;;;;;;5077042;28;20267;-46
2023/07/25 05:28:57;;;;;;;13.87;13.10;;;18.50;1.00;;;;;;5071513;28;20528;-43
2023/07/25 05:31:22;;;;;;;13.70;13.00;;;18.50;1.00;;;;;;5061356;28;20227;-46
2023/07/25 05:33:48;;;;;;;14.00;13.10;;;18.40;1.00;;;;;;5075235;28;20192;-47
2023/07/25 05:36:13;;;;;;;13.73;12.73;;;18.40;1.00;;;;;;5077205;28;20195;-46
2023/07/25 05:38:39;;;;;;;13.90;13.10;;;18.40;1.00;;;;;;5077882;28;20181;-42
2023/07/25 05:41:04;;;;;;;14.60;13.73;;;18.40;1.00;;;;;;5078498;28;20311;-44
2023/07/25 05:43:30;;;;;;;14.50;13.70;;;18.40;1.00;;;;;;5065974;28;20188;-46
2023/07/25 05:45:55;;;;;;;15.43;14.43;;;18.50;1.00;;;;;;5064780;28;20208;-45
2023/07/25 05:48:21;;;;;;;15.50;14.60;;;18.60;1.00;;;;;;5066465;28;20186;-44
2023/07/25 05:50:52;;;;;;;15.70;14.80;;;18.60;1.00;;;;;;5077748;28;20214;-42
2023/07/25 05:53:19;;;;;;;15.03;14.03;;;18.50;1.00;;;;;;5075880;28;20184;-46
2023/07/25 05:55:48;;;;;;;14.90;13.90;;;18.60;1.00;;;;;;5082471;28;20984;-47
2023/07/25 05:58:17;;;;;;;15.80;14.80;;;18.60;1.00;;;;;;5067931;28;20444;-44
2023/07/25 06:00:46;;;;;;;14.80;13.93;;;18.60;1.00;;;;;;5081625;28;20813;-45
2023/07/25 06:03:14;;;;;;;15.17;14.07;;;18.60;1.00;;;;;;5082387;28;20410;-45
2023/07/25 06:05:40;;;;;;;15.23;14.20;;;18.70;1.00;;;;;;5082539;28;20874;-45
2023/07/25 06:08:07;;;;;;;14.93;14.03;;;18.70;1.00;;;;;;5081310;28;20426;-45
2023/07/25 06:10:33;;;;;;;14.63;13.83;;;18.70;1.00;;;;;;5080664;28;20453;-45
2023/07/25 06:12:58;;;;;;;15.27;14.17;;;18.70;1.00;;;;;;5075261;28;20515;-48
2023/07/25 06:15:24;;;;;;;14.80;13.80;;;18.80;1.00;;;;;;5082108;28;20185;-43
2023/07/25 06:17:50;;;;;;;14.50;13.50;;;18.70;1.00;;;;;;5060934;28;20683;-44
2023/07/25 06:20:16;;;;;;;14.50;13.60;;;18.80;1.00;;;;;;5078243;28;20674;-47
2023/07/25 06:22:41;;;;;;;14.90;13.97;;;18.90;1.00;;;;;;5082059;28;20180;-46
2023/07/25 06:25:08;;;;;;;15.03;14.13;;;18.90;1.00;;;;;;5080779;28;20639;-43
2023/07/25 06:27:34;;;;;;;15.17;14.27;;;19.00;1.00;;;;;;5081254;28;20176;-46
2023/07/25 06:30:02;;;;;;;15.37;14.27;;;19.10;1.00;;;;;;5080748;28;21383;-46
2023/07/25 06:32:28;;;;;;;14.93;14.13;;;19.10;1.00;;;;;;5066023;28;20855;-44
2023/07/25 06:34:53;;;;;;;14.73;13.90;;;19.20;1.00;;;;;;5081216;28;20426;-43
2023/07/25 06:37:19;;;;;;;15.50;14.50;;;19.20;1.00;;;;;;5080117;28;20446;-45
2023/07/25 06:39:44;;;;;;;15.50;14.50;;;19.30;1.00;;;;;;5081780;28;20945;-41
2023/07/25 06:42:10;;;;;;;17.80;16.53;;;19.50;1.00;;;;;;5079290;28;20183;-43
2023/07/25 06:44:36;;;;;;;15.27;14.27;;;19.60;1.00;;;;;;5076212;28;20267;-43
2023/07/25 06:47:01;;;;;;;15.97;14.87;;;19.60;1.00;;;;;;5071595;28;20193;-45
2023/07/25 06:49:27;;;;;;;15.13;14.13;;;19.80;1.00;;;;;;5067170;28;20188;-45
2023/07/25 06:51:55;;;;;;;15.10;14.20;;;19.80;1.00;;;;;;5075332;28;20188;-44
2023/07/25 06:54:21;;;;;;;15.60;14.50;;;19.80;1.00;;;;;;5076671;28;20192;-44
2023/07/25 06:56:47;;;;;;;15.97;14.77;;;19.90;1.00;;;;;;5080794;28;20426;-49
2023/07/25 06:59:12;;;;;;;15.80;14.70;;;20.00;1.00;;;;;;5081409;28;21159;-42
2023/07/25 07:01:38;;;;;;;15.20;14.40;;;20.10;1.00;;;;;;5080261;28;20630;-44
2023/07/25 07:04:04;;;;;;;16.13;14.90;;;20.00;1.00;;;;;;5078587;28;20623;-45
2023/07/25 07:06:29;;;;;;;14.20;13.40;;;19.90;1.00;;;;;;5060705;28;20189;-42
2023/07/25 07:08:55;;;;;;;15.63;14.70;;;19.90;1.00;;;;;;5060411;28;20792;-43
2023/07/25 07:11:21;;;;;;;14.90;13.80;;;19.80;1.00;;;;;;5062097;28;20280;-43
2023/07/25 07:13:46;;;;;;;15.50;14.53;;;19.80;1.00;;;;;;5061835;28;20614;-43
2023/07/25 07:16:12;;;;;;;15.43;14.40;;;19.80;1.00;;;;;;5059872;28;20686;-45
2023/07/25 07:18:37;;;;;;;16.50;15.20;;;19.70;1.00;;;;;;5061606;28;20327;-46
2023/07/25 07:21:03;;;;;;;15.17;13.90;;;19.70;1.00;;;;;;5061027;28;20232;-42
2023/07/25 07:23:29;;;;;;;15.00;14.20;;;19.70;1.00;;;;;;5061970;28;20188;-45
2023/07/25 07:25:54;;;;;;;14.40;13.60;;;19.80;99.90;;;;;;5061520;28;21361;-43
2023/07/25 07:28:20;;;;;;;16.07;15.07;;;19.70;1.00;;;;;;5060903;28;20288;-44
2023/07/25 07:30:50;;;;;;;15.37;14.33;;;19.70;1.00;;;;;;5071133;28;20636;-43
2023/07/25 07:33:16;;;;;;;15.60;14.67;;;19.80;1.00;;;;;;5063070;28;20196;-43
2023/07/25 07:35:41;;;;;;;15.37;14.53;;;19.80;1.00;;;;;;5072498;28;20439;-46
2023/07/25 07:38:07;;;;;;;14.03;13.23;;;19.80;1.00;;;;;;5080645;28;20834;-45
2023/07/25 07:40:35;;;;;;;15.90;14.97;;;19.80;66.60;;;;;;5075901;28;20216;-42
2023/07/25 07:43:01;;;;;;;17.00;15.90;;;19.70;99.90;;;;;;5061019;28;20261;-43
2023/07/25 07:45:27;;;;;;;16.50;15.40;;;19.70;99.90;;;;;;5060885;28;20943;-45
2023/07/25 07:47:53;;;;;;;16.63;15.70;;;19.60;1.00;;;;;;5061697;28;20439;-45
2023/07/25 07:50:19;;;;;;;15.97;14.77;;;19.50;99.90;;;;;;5061432;28;20930;-45
2023/07/25 07:52:45;;;;;;;16.23;15.23;;;19.50;99.90;;;;;;5078256;28;20625;-42
2023/07/25 07:55:12;;;;;;;15.77;14.70;;;19.60;99.90;;;;;;5079836;28;20423;-42
2023/07/25 07:57:43;;;;;;;15.80;14.60;;;19.70;1.00;;;;;;5078632;28;20791;-42
2023/07/25 08:00:10;;;;;;;17.17;16.07;;;19.90;1.00;;;;;;5079246;28;20469;-42
2023/07/25 08:02:36;;;;;;;14.83;13.93;;;20.10;99.90;;;;;;5066620;28;20940;-42
2023/07/25 08:05:01;;;;;;;15.80;14.80;;;20.40;99.90;;;;;;5061335;28;20427;-44
2023/07/25 08:07:27;;;;;;;15.37;14.33;;;20.70;99.90;;;;;;5076924;28;20189;-43
2023/07/25 08:09:56;;;;;;;16.20;15.10;;;21.00;99.90;;;;;;5080050;28;20191;-42
2023/07/25 08:12:23;;;;;;;16.30;15.30;;;21.30;21.30;;;;;;5071022;28;21005;-48
2023/07/25 08:14:49;;;;;;;15.57;14.47;;;21.50;1.00;;;;;;5060085;28;20431;-42
2023/07/25 08:17:18;;;;;;;15.37;14.30;;;21.70;1.00;;;;;;5066015;28;20446;-43
2023/07/25 08:19:44;;;;;;;15.97;14.97;;;21.90;99.90;;;;;;5080353;28;20466;-47
2023/07/25 08:22:10;;;;;;;15.43;14.43;;;21.90;99.90;;;;;;5080106;28;20450;-46
2023/07/25 08:24:36;;;;;;;14.37;13.47;;;21.90;99.90;;;;;;5066857;28;20515;-44
2023/07/25 08:27:02;;;;;;;15.70;14.73;;;21.90;95.50;;;;;;5056780;28;20434;-46
2023/07/25 08:29:28;;;;;;;15.00;14.10;;;21.90;98.30;;;;;;5065007;28;20788;-42
2023/07/25 08:31:53;;;;;;;15.40;14.00;;;21.80;99.90;;;;;;5066645;28;20580;-45
2023/07/25 08:34:20;;;;;;;13.40;12.60;;;21.80;96.50;;;;;;5068879;28;20220;-43
2023/07/25 08:36:46;;;;;;;15.03;14.13;;;21.80;48.20;;;;;;5079676;28;20184;-45
2023/07/25 08:39:11;;;;;;;14.67;13.70;;;21.80;65.40;;;;;;5075443;28;20473;-46
2023/07/25 08:41:45;;;;;;;14.67;13.87;;;21.70;79.00;;;;;;5078416;28;20426;-47
2023/07/25 08:44:12;;;;;;;15.67;14.73;;;21.80;1.00;;;;;;5075362;28;20193;-44
2023/07/25 08:46:41;;;;;;;14.80;13.80;;;21.80;1.00;;;;;;5064464;28;20506;-42
2023/07/25 08:49:13;;;;;;;14.20;13.37;;;21.80;1.00;;;;;;5061117;28;20443;-45
2023/07/25 08:51:42;;;;;;;13.90;13.20;;;21.80;1.00;;;;;;5079361;28;20583;-45
2023/07/25 08:54:08;;;;;;;13.60;12.90;;;21.90;1.00;;;;;;5071318;28;20500;-45
2023/07/25 08:56:34;;;;;;;13.90;13.10;;;22.10;1.00;;;;;;5078073;28;20433;-45
2023/07/25 08:59:02;;;;;;;15.20;14.10;;;22.40;1.00;;;;;;5075645;28;20956;-43
2023/07/25 09:01:28;;;;;;;13.43;12.70;;;22.80;1.00;;;;;;5060538;28;20439;-42
2023/07/25 09:03:55;;;;;;;14.33;13.37;;;23.00;1.00;;;;;;5074976;28;20692;-42
2023/07/25 09:06:20;;;;;;;14.10;13.20;;;23.10;1.00;;;;;;5079165;28;20187;-44
2023/07/25 09:08:46;;;;;;;15.37;14.10;;;23.30;1.00;;;;;;5079187;28;20426;-42
2023/07/25 09:11:16;;;;;;;13.83;13.03;;;23.60;1.00;;;;;;5077766;28;20362;-44
2023/07/25 09:13:41;;;;;;;13.70;12.90;;;23.70;1.00;;;;;;5078701;28;20192;-48
2023/07/25 09:16:07;;;;;;;13.07;12.20;;;23.90;1.00;;;;;;5076979;28;20901;-46
2023/07/25 09:18:33;;;;;;;13.33;12.53;;;24.10;1.00;;;;;;5065784;28;20726;-44
2023/07/25 09:20:59;;;;;;;12.80;12.10;;;24.20;1.00;;;;;;5070726;28;20516;-43
2023/07/25 09:23:25;;;;;;;12.97;11.90;;;24.30;1.00;;;;;;5073903;28;20845;-43
2023/07/25 09:26:06;;;;;;;12.40;11.80;;;24.50;1.00;;;;;;5072258;28;20591;-43
2023/07/25 09:28:33;;;;;;;12.27;11.63;;;24.80;99.90;;;;;;5072210;28;20548;-43
2023/07/25 09:31:04;;;;;;;13.37;12.67;;;25.30;99.90;;;;;;5073554;28;21158;-49
2023/07/25 09:33:30;;;;;;;13.13;12.43;;;25.90;99.90;;;;;;5061198;28;20435;-43
2023/07/25 09:35:57;;;;;;;12.90;12.10;;;25.20;99.90;;;;;;5063836;28;20431;-47
2023/07/25 09:38:22;;;;;;;12.90;12.00;;;25.30;99.90;;;;;;5063079;28;20761;-48
2023/07/25 09:40:48;;;;;;;12.60;11.90;;;25.00;99.90;;;;;;5063476;28;21113;-54
2023/07/25 09:43:24;;;;;;;13.17;12.47;;;25.10;99.90;;;;;;5063631;28;20734;-51
2023/07/25 09:45:51;;;;;;;13.00;12.10;;;25.40;99.90;;;;;;5062178;28;20880;-50
2023/07/25 09:48:17;;;;;;;12.63;12.03;;;25.80;99.90;;;;;;5083257;28;20979;-51
2023/07/25 09:50:44;;;;;;;12.17;11.47;;;26.40;99.90;;;;;;5076063;28;20438;-50
2023/07/25 09:53:14;;;;;;;12.80;12.00;;;26.70;99.90;;;;;;5063198;28;20173;-50
2023/07/25 09:55:40;;;;;;;12.33;11.63;;;26.80;99.90;;;;;;5063125;28;20422;-51
2023/07/25 09:58:06;;;;;;;12.50;11.90;;;26.70;99.90;;;;;;5062882;28;21087;-52
2023/07/25 10:00:32;;;;;;;13.77;13.07;;;26.70;99.90;;;;;;5063059;28;20478;-49
2023/07/25 10:02:58;;;;;;;13.73;12.90;;;26.70;99.90;;;;;;5062986;28;20189;-53
2023/07/25 10:05:25;;;;;;;13.33;12.63;;;26.30;99.90;;;;;;5062859;28;20423;-50
2023/07/25 10:07:52;;;;;;;13.70;12.90;;;25.80;99.90;;;;;;5061684;28;20431;-53
2023/07/25 10:10:19;;;;;;;12.50;11.73;;;25.40;99.90;;;;;;5061671;28;20443;-51
2023/07/25 10:12:45;;;;;;;13.47;12.63;;;25.40;99.90;;;;;;5061438;28;20436;-54
2023/07/25 10:15:12;;;;;;;12.87;12.20;;;25.70;99.90;;;;;;5062695;28;20929;-51
2023/07/25 10:17:38;;;;;;;12.53;11.83;;;26.00;99.90;;;;;;5062745;28;20430;-52
2023/07/25 10:20:07;;;;;;;13.20;12.40;;;26.50;99.90;;;;;;5061942;28;20968;-50
2023/07/25 10:22:37;;;;;;;13.27;12.53;;;26.90;99.90;;;;;;5067403;28;20796;-48
2023/07/25 10:25:09;;;;;;;12.60;12.00;;;27.30;99.90;;;;;;5081976;28;20656;-46
2023/07/25 10:27:36;;;;;;;13.30;12.60;;;27.90;99.90;;;;;;5082052;28;20414;-51
2023/07/25 10:30:01;;;;;;;12.73;12.13;;;27.80;99.90;;;;;;5076750;28;20426;-49
2023/07/25 10:32:44;;;;;;;13.80;13.10;;;27.60;99.90;;;;;;5070009;28;20450;-51
2023/07/25 10:35:10;;;;;;;13.43;12.53;;;27.40;99.90;;;;;;5067099;28;20185;-51
2023/07/25 10:37:42;;;;;;;13.43;12.73;;;26.70;99.90;;;;;;5081729;28;20499;-52
2023/07/25 10:40:15;;;;;;;13.20;12.40;;;26.10;99.90;;;;;;5080928;28;20209;-53
2023/07/25 10:42:46;;;;;;;13.23;12.53;;;25.70;99.90;;;;;;5078273;28;20758;-51
2023/07/25 10:45:44;;;;;;;13.30;12.60;;;25.40;99.90;;;;;;5067542;28;21045;-49
2023/07/25 10:48:33;;;;;;;11.83;11.20;;;25.00;99.90;;;;;;5038413;28;21015;-47
2023/07/25 10:51:07;;;;;;;13.73;12.70;;;24.80;99.90;;;;;;5037954;28;20470;-52
2023/07/25 10:53:33;;;;;;;14.77;13.87;;;24.50;99.90;;;;;;5033976;28;20448;-50
2023/07/25 10:56:04;;;;;;;11.90;11.20;;;24.30;99.90;;;;;;5020411;28;21009;-55
2023/07/25 10:58:31;;;;;;;13.50;12.80;;;24.10;99.90;;;;;;5019012;28;20954;-54
2023/07/25 11:00:58;;;;;;;12.00;11.40;;;24.00;99.90;;;;;;5019076;28;20508;-53
2023/07/25 11:03:34;;;;;;;13.77;12.90;;;23.90;99.90;;;;;;5018938;28;21199;-52
2023/07/25 11:06:20;;;;;;;13.30;12.60;;;23.90;99.90;;;;;;5018789;28;20515;-51
2023/07/25 11:08:46;;;;;;;13.70;12.93;;;23.90;99.90;;;;;;5019137;28;20447;-50
2023/07/25 11:11:12;;;;;;;12.60;11.57;;;23.70;99.90;;;;;;5037725;28;20802;-51
2023/07/25 11:13:40;;;;;;;13.03;12.33;;;23.60;99.90;;;;;;5027711;28;20511;-50
2023/07/25 11:16:11;;;;;;;13.07;12.30;;;23.50;99.90;;;;;;5031501;28;20923;-53
2023/07/25 11:18:48;;;;;;;12.97;12.03;;;23.40;99.90;;;;;;5019026;28;20515;-52
2023/07/25 11:21:15;;;;;;;13.20;12.50;;;23.30;99.90;;;;;;5006840;28;20544;-47
2023/07/25 11:23:40;;;;;;;14.40;13.43;;;23.20;99.90;;;;;;5041468;28;20419;-50
2023/07/25 11:26:07;;;;;;;13.83;12.90;;;23.10;99.90;;;;;;5077575;28;20918;-48
2023/07/25 11:28:39;;;;;;;14.33;13.57;;;23.20;99.90;;;;;;5079318;28;20180;-51
2023/07/25 11:31:04;;;;;;;13.33;12.40;;;23.20;99.90;;;;;;5067712;28;20452;-50
2023/07/25 11:33:37;;;;;;;12.57;11.80;;;23.50;99.90;;;;;;5068492;28;20415;-49
2023/07/25 11:36:03;;;;;;;13.50;12.80;;;23.90;99.90;;;;;;5065691;28;20192;-50
2023/07/25 11:38:28;;;;;;;12.43;11.73;;;24.80;99.90;;;;;;5079722;28;20916;-49
2023/07/25 11:40:55;;;;;;;12.90;12.10;;;25.60;99.90;;;;;;5067359;28;20243;-50
2023/07/25 11:43:22;;;;;;;13.20;12.60;;;26.40;99.90;;;;;;5070874;28;20185;-49
2023/07/25 11:45:48;;;;;;;11.93;11.33;;;27.00;99.90;;;;;;5078175;28;20808;-49
2023/07/25 11:48:18;;;;;;;13.50;12.80;;;27.40;99.90;;;;;;5072224;28;20434;-50
2023/07/25 11:50:48;;;;;;;12.97;12.37;;;28.00;99.90;;;;;;5077758;28;20743;-49
2023/07/25 11:53:15;;;;;;;13.40;12.80;;;28.40;99.90;;;;;;5074741;28;21122;-50
2023/07/25 11:55:41;;;;;;;13.10;12.43;;;28.40;99.90;;;;;;5073571;28;20972;-53
2023/07/25 11:58:07;;;;;;;12.40;11.80;;;28.30;99.90;;;;;;5067235;28;20437;-48
2023/07/25 12:00:42;;;;;;;12.30;11.60;;;28.10;99.90;;;;;;5076831;28;20672;-49
2023/07/25 12:03:18;;;;;;;12.60;12.00;;;27.90;99.90;;;;;;5077916;28;20184;-48
2023/07/25 12:06:00;;;;;;;13.20;12.60;;;27.70;99.90;;;;;;5072360;28;20431;-54
2023/07/25 12:08:34;;;;;;;13.10;12.40;;;27.60;99.90;;;;;;5072678;28;20415;-47
2023/07/25 12:11:04;;;;;;;13.63;12.83;;;27.50;99.90;;;;;;5067581;28;20761;-52
2023/07/25 12:13:30;;;;;;;13.33;12.63;;;27.50;99.90;;;;;;5080067;28;20471;-48
2023/07/25 12:15:57;;;;;;;12.90;12.30;;;27.40;99.90;;;;;;5073414;28;20450;-53
2023/07/25 12:18:29;;;;;;;13.57;12.83;;;27.40;99.90;;;;;;5073534;28;20260;-51
2023/07/25 12:20:57;;;;;;;13.67;12.97;;;27.30;99.90;;;;;;5079736;28;20904;-52
2023/07/25 12:23:33;;;;;;;12.43;11.73;;;27.30;99.90;;;;;;5061869;28;20454;-54
2023/07/25 12:26:01;;;;;;;13.10;12.50;;;27.30;99.90;;;;;;5079432;28;20465;-48
2023/07/25 12:28:39;;;;;;;13.13;12.23;;;27.20;99.90;;;;;;5079141;28;20429;-50